Time;durP1;ratioP1;P1;durP2;ratioP2;P2;SDS_P1;SDS_P2;PMS_P1;PMS_P2;Temp;Humidity;BMP_temperature;BMP_pressure;BME280_temperature;BME280_humidity;BME280_pressure;Samples;Min_cycle;Max_cycle;Signal;HPM_P1;HPM_P2
2024/04/05 00:00:16;;;;;;;1.98;0.80;;;;;;;16.12;48.73;95014.22;5067487;28;20032;-45
2024/04/05 00:02:43;;;;;;;2.10;0.85;;;;;;;16.08;48.86;95013.88;5067910;28;20035;-46
2024/04/05 00:05:12;;;;;;;2.08;0.88;;;;;;;16.37;48.20;95007.13;5068292;28;20023;-45
2024/04/05 00:07:38;;;;;;;3.28;0.88;;;;;;;15.76;49.84;95000.03;5069238;28;20075;-45
2024/04/05 00:10:08;;;;;;;1.55;0.82;;;;;;;15.69;49.67;95015.81;5073239;28;20037;-45
2024/04/05 00:12:34;;;;;;;2.23;1.00;;;;;;;15.75;49.95;95022.03;5072181;28;20029;-46
2024/04/05 00:14:59;;;;;;;2.67;0.90;;;;;;;15.52;50.08;95014.72;5067908;28;20257;-50
2024/04/05 00:17:25;;;;;;;1.73;0.80;;;;;;;15.23;50.69;94999.41;5071834;28;20036;-46
2024/04/05 00:19:52;;;;;;;2.58;0.80;;;;;;;14.83;52.48;95012.72;5070193;28;20112;-46
2024/04/05 00:22:19;;;;;;;1.90;0.90;;;;;;;15.16;50.94;95016.97;5086426;28;20036;-48
2024/04/05 00:24:44;;;;;;;1.70;0.90;;;;;;;15.36;50.77;95023.88;5072348;28;20032;-48
2024/04/05 00:27:09;;;;;;;2.10;0.90;;;;;;;15.50;50.11;95021.97;5073699;28;20021;-48
2024/04/05 00:29:36;;;;;;;2.30;0.88;;;;;;;15.39;50.40;95013.00;5072176;28;20033;-51
2024/04/05 00:32:02;;;;;;;2.08;0.68;;;;;;;15.31;49.79;95005.41;5055542;28;20055;-50
2024/04/05 00:34:27;;;;;;;2.53;0.80;;;;;;;15.49;49.35;95008.06;5074981;28;20032;-51
2024/04/05 00:36:52;;;;;;;1.83;0.85;;;;;;;15.74;48.46;95015.97;5065693;28;20058;-48
2024/04/05 00:39:18;;;;;;;2.70;0.82;;;;;;;15.70;48.23;95013.97;5070409;28;20029;-48
2024/04/05 00:41:43;;;;;;;2.38;0.80;;;;;;;15.99;47.62;95012.53;5082708;28;20075;-46
2024/04/05 00:44:09;;;;;;;2.47;0.90;;;;;;;16.02;47.79;95007.66;5070522;28;20024;-47
2024/04/05 00:46:36;;;;;;;2.20;0.85;;;;;;;16.05;47.69;95005.63;5068437;28;20384;-47
2024/04/05 00:49:02;;;;;;;2.22;0.70;;;;;;;16.07;47.27;95006.19;5071188;28;20048;-49
2024/04/05 00:51:27;;;;;;;2.25;0.90;;;;;;;16.13;47.15;95006.16;5069406;28;20033;-52
2024/04/05 00:53:53;;;;;;;2.58;0.85;;;;;;;16.02;47.34;94989.28;5069419;28;20027;-47
2024/04/05 00:56:20;;;;;;;1.85;0.90;;;;;;;16.11;47.08;95004.78;5071263;28;20024;-49
2024/04/05 00:58:45;;;;;;;2.05;0.90;;;;;;;16.09;47.27;94996.28;5069559;28;20047;-48
2024/04/05 01:01:11;;;;;;;2.10;0.80;;;;;;;16.07;47.13;95004.41;5054831;28;20032;-47
2024/04/05 01:03:38;;;;;;;1.50;0.85;;;;;;;16.27;46.78;95006.00;5068184;28;20098;-47
2024/04/05 01:06:04;;;;;;;3.05;0.95;;;;;;;16.19;47.58;94993.97;5071518;28;20028;-45
2024/04/05 01:08:29;;;;;;;2.60;0.90;;;;;;;16.10;48.01;94993.44;5071156;28;20045;-45
2024/04/05 01:10:55;;;;;;;1.48;0.80;;;;;;;16.02;47.65;94994.53;5067917;28;20041;-49
2024/04/05 01:13:20;;;;;;;3.03;0.95;;;;;;;15.82;47.83;94988.66;5052314;28;20027;-46
2024/04/05 01:15:46;;;;;;;2.25;0.90;;;;;;;15.74;48.31;94991.56;5071258;28;20051;-46
2024/04/05 01:18:11;;;;;;;1.85;0.80;;;;;;;15.70;48.72;94985.13;5067393;28;20032;-47
2024/04/05 01:20:38;;;;;;;2.55;0.70;;;;;;;15.77;48.27;94975.41;5071405;28;20035;-45
2024/04/05 01:23:05;;;;;;;2.80;0.80;;;;;;;15.47;49.09;94970.78;5071527;28;20035;-45
2024/04/05 01:25:32;;;;;;;3.42;1.00;;;;;;;15.37;49.15;94973.09;5067752;28;20104;-46
2024/04/05 01:27:59;;;;;;;1.75;0.60;;;;;;;15.16;50.07;94969.81;5065016;28;20047;-48
2024/04/05 01:30:25;;;;;;;2.10;0.85;;;;;;;15.18;50.10;94967.78;5063848;28;20039;-46
2024/04/05 01:32:58;;;;;;;2.08;0.80;;;;;;;15.12;49.83;94965.22;5070217;28;20029;-46
2024/04/05 01:35:24;;;;;;;2.35;0.90;;;;;;;14.93;50.01;94964.34;5079810;28;20032;-45
2024/04/05 01:37:50;;;;;;;3.70;0.88;;;;;;;14.77;50.25;94966.41;5071538;28;20052;-44
2024/04/05 01:40:15;;;;;;;2.53;0.90;;;;;;;14.88;49.95;94966.75;5084110;28;20020;-46
2024/04/05 01:42:41;;;;;;;2.10;0.90;;;;;;;14.90;50.16;94970.78;5063511;28;20159;-47
2024/04/05 01:45:07;;;;;;;1.98;0.90;;;;;;;14.69;50.61;94961.41;5070874;28;20031;-48
2024/04/05 01:47:32;;;;;;;2.08;0.90;;;;;;;14.69;50.56;94958.00;5071625;28;20526;-46
2024/04/05 01:49:58;;;;;;;2.65;0.93;;;;;;;14.80;49.88;94971.22;5070674;28;20091;-46
2024/04/05 01:52:24;;;;;;;2.03;0.90;;;;;;;14.83;49.61;94960.34;5062287;28;20269;-45
2024/04/05 01:54:49;;;;;;;3.25;1.00;;;;;;;14.81;49.64;94958.94;5066507;28;20032;-49
2024/04/05 01:57:14;;;;;;;2.53;0.85;;;;;;;15.02;49.11;94957.81;5081904;28;20032;-46
2024/04/05 01:59:49;;;;;;;1.92;0.70;;;;;;;14.93;49.13;94959.88;5068938;28;20032;-46
2024/04/05 02:02:14;;;;;;;2.65;0.80;;;;;;;15.08;48.63;94958.78;5072064;28;20084;-46
2024/04/05 02:04:40;;;;;;;2.97;0.70;;;;;;;14.94;49.02;94960.69;5050309;28;20116;-49
2024/04/05 02:07:05;;;;;;;1.75;0.80;;;;;;;14.85;48.90;94968.00;5067984;28;20048;-48
2024/04/05 02:09:31;;;;;;;1.20;0.80;;;;;;;14.83;49.07;94968.22;5080019;28;20024;-45
2024/04/05 02:11:58;;;;;;;1.13;0.70;;;;;;;14.82;48.64;94963.97;5053310;28;20029;-45
2024/04/05 02:14:25;;;;;;;1.85;0.80;;;;;;;14.94;48.52;94964.09;5063226;28;20028;-46
2024/04/05 02:16:50;;;;;;;2.28;1.00;;;;;;;14.75;48.88;94970.25;5065306;28;20113;-46
2024/04/05 02:19:16;;;;;;;1.75;0.80;;;;;;;14.83;48.64;94972.63;5036776;28;20125;-46
2024/04/05 02:21:42;;;;;;;1.27;0.70;;;;;;;14.91;48.20;94979.41;5059234;28;20028;-46
2024/04/05 02:24:07;;;;;;;0.95;0.70;;;;;;;14.70;48.53;94976.13;5066360;28;20044;-45
2024/04/05 02:26:33;;;;;;;2.33;0.70;;;;;;;14.84;48.35;94984.72;5066406;28;20036;-46
2024/04/05 02:28:58;;;;;;;1.65;0.77;;;;;;;14.94;48.08;94986.88;5053400;28;20033;-46
2024/04/05 02:31:24;;;;;;;0.90;0.60;;;;;;;14.89;47.81;94979.66;5069298;28;20036;-46
2024/04/05 02:33:49;;;;;;;1.02;0.65;;;;;;;14.94;47.37;94982.44;5067531;28;20037;-48
2024/04/05 02:36:15;;;;;;;1.55;0.60;;;;;;;14.62;47.67;94989.44;5053103;28;20035;-47
2024/04/05 02:38:40;;;;;;;1.70;0.82;;;;;;;14.90;47.35;94991.72;5069451;28;20422;-48
2024/04/05 02:41:07;;;;;;;3.38;0.70;;;;;;;14.74;47.81;94992.22;5066106;28;20108;-49
2024/04/05 02:43:33;;;;;;;3.08;0.60;;;;;;;14.55;48.39;94988.66;5060629;28;20115;-50
2024/04/05 02:45:59;;;;;;;1.45;1.10;;;;;;;14.47;48.44;94987.88;5069016;28;20033;-47
2024/04/05 02:48:25;;;;;;;4.40;0.90;;;;;;;14.20;48.92;94999.41;5066530;28;20552;-46
2024/04/05 02:50:50;;;;;;;1.25;0.70;;;;;;;14.41;48.29;94987.88;5070638;28;20108;-48
2024/04/05 02:53:16;;;;;;;0.93;0.68;;;;;;;14.63;47.62;94989.22;5065690;28;20102;-48
2024/04/05 02:55:41;;;;;;;1.52;0.68;;;;;;;14.95;47.17;94978.81;5062189;28;20114;-48
2024/04/05 02:58:07;;;;;;;1.13;0.60;;;;;;;15.01;47.27;94985.03;5069628;28;20040;-49
2024/04/05 03:00:36;;;;;;;1.63;0.68;;;;;;;14.87;47.61;94984.31;5069057;28;20036;-50
2024/04/05 03:03:01;;;;;;;1.00;0.63;;;;;;;14.76;48.14;94991.00;5068127;28;20043;-49
2024/04/05 03:05:27;;;;;;;1.17;0.80;;;;;;;14.91;47.12;94979.41;5063621;28;20094;-46
2024/04/05 03:07:52;;;;;;;1.38;0.73;;;;;;;14.45;48.28;94968.16;5080077;28;20044;-48
2024/04/05 03:10:18;;;;;;;0.95;0.70;;;;;;;14.12;49.26;94973.50;5051751;28;20120;-50
2024/04/05 03:12:43;;;;;;;2.50;0.68;;;;;;;14.36;48.65;94964.97;5063161;28;20031;-50
2024/04/05 03:15:09;;;;;;;1.85;0.60;;;;;;;14.42;48.55;94958.91;5062834;28;20041;-47
2024/04/05 03:17:35;;;;;;;1.73;0.68;;;;;;;14.55;48.18;94967.72;5078376;28;20066;-50
2024/04/05 03:20:00;;;;;;;0.93;0.60;;;;;;;14.37;48.66;94971.00;5069354;28;20032;-48
2024/04/05 03:22:26;;;;;;;1.30;0.70;;;;;;;14.62;47.62;94964.09;5068539;28;20037;-50
2024/04/05 03:24:51;;;;;;;3.08;0.60;;;;;;;14.71;47.65;94963.84;5052273;28;20036;-48
2024/04/05 03:27:17;;;;;;;1.13;0.60;;;;;;;14.52;47.38;94952.41;5035867;28;20095;-48
2024/04/05 03:29:42;;;;;;;2.70;0.60;;;;;;;14.32;48.47;94961.16;5068549;28;20025;-49
2024/04/05 03:32:09;;;;;;;1.95;0.60;;;;;;;14.35;48.26;94965.16;5052399;28;20029;-46
2024/04/05 03:34:34;;;;;;;2.58;0.70;;;;;;;14.17;48.62;94971.06;5068127;28;20068;-49
2024/04/05 03:37:00;;;;;;;1.25;0.70;;;;;;;14.21;48.52;94973.06;5065459;28;20395;-45
2024/04/05 03:39:25;;;;;;;1.95;0.60;;;;;;;14.14;48.80;94976.69;5063175;28;20087;-48
2024/04/05 03:41:51;;;;;;;2.45;0.70;;;;;;;14.39;47.63;94959.31;5066979;28;20029;-51
2024/04/05 03:44:16;;;;;;;1.02;0.60;;;;;;;14.19;47.73;94961.19;5051961;28;20041;-45
2024/04/05 03:46:43;;;;;;;1.27;0.60;;;;;;;14.47;47.41;94961.69;5069149;28;20521;-46
2024/04/05 03:49:08;;;;;;;0.80;0.57;;;;;;;14.56;47.21;94958.84;5066172;28;20025;-47
2024/04/05 03:51:34;;;;;;;2.80;0.65;;;;;;;14.25;47.93;94952.53;5057421;28;20053;-46
2024/04/05 03:53:59;;;;;;;1.83;0.70;;;;;;;14.30;48.10;94942.25;5061947;28;20033;-46
2024/04/05 03:56:25;;;;;;;1.90;0.60;;;;;;;14.07;48.31;94940.13;5052032;28;20052;-45
2024/04/05 03:58:53;;;;;;;1.23;0.68;;;;;;;14.21;48.03;94930.41;5045403;28;20028;-45
2024/04/05 04:01:19;;;;;;;1.42;0.60;;;;;;;14.14;48.22;94932.22;5045618;28;20036;-46
2024/04/05 04:03:44;;;;;;;1.42;0.57;;;;;;;13.97;48.63;94937.91;5051849;28;20381;-45
2024/04/05 04:06:10;;;;;;;1.33;0.93;;;;;;;13.85;48.69;94942.16;5065957;28;20029;-45
2024/04/05 04:08:36;;;;;;;2.55;0.73;;;;;;;14.04;48.27;94933.47;5048484;28;20363;-47
2024/04/05 04:11:02;;;;;;;2.03;0.73;;;;;;;14.08;47.99;94936.47;5066759;28;20078;-48
2024/04/05 04:13:28;;;;;;;2.85;0.60;;;;;;;14.08;47.81;94929.44;5064982;28;20044;-46
2024/04/05 04:15:54;;;;;;;1.20;0.50;;;;;;;14.22;47.51;94929.38;5052773;28;20064;-48
2024/04/05 04:18:19;;;;;;;0.75;0.70;;;;;;;14.26;47.17;94928.78;5068588;28;20066;-48
2024/04/05 04:20:45;;;;;;;1.63;0.70;;;;;;;14.06;47.84;94922.81;5069755;28;20029;-46
2024/04/05 04:23:10;;;;;;;2.17;0.60;;;;;;;14.11;47.42;94937.88;5066784;28;20028;-48
2024/04/05 04:25:36;;;;;;;3.13;0.70;;;;;;;14.24;47.32;94940.44;5067088;28;20543;-47
2024/04/05 04:28:01;;;;;;;1.55;0.60;;;;;;;14.24;47.46;94930.81;5066985;28;20029;-50
2024/04/05 04:30:29;;;;;;;3.08;0.60;;;;;;;14.15;47.55;94937.25;5072127;28;20074;-49
2024/04/05 04:32:54;;;;;;;1.40;1.00;;;;;;;14.08;47.65;94929.44;5064246;28;20111;-49
2024/04/05 04:35:20;;;;;;;1.23;0.70;;;;;;;13.90;47.84;94937.13;5068627;28;20092;-48
2024/04/05 04:37:45;;;;;;;1.92;0.63;;;;;;;14.30;47.13;94928.34;5065494;28;20032;-48
2024/04/05 04:40:11;;;;;;;1.50;0.60;;;;;;;14.17;47.49;94929.22;5064687;28;20029;-47
2024/04/05 04:42:40;;;;;;;2.50;0.70;;;;;;;14.02;48.16;94927.66;5066105;28;20036;-47
2024/04/05 04:45:06;;;;;;;2.53;0.73;;;;;;;14.09;47.96;94925.03;5059187;28;20036;-49
2024/04/05 04:47:32;;;;;;;0.95;0.70;;;;;;;14.38;47.51;94926.31;5059552;28;20037;-48
2024/04/05 04:49:59;;;;;;;0.57;0.50;;;;;;;13.94;47.24;94929.69;5067686;28;20079;-46
2024/04/05 04:52:24;;;;;;;2.65;0.60;;;;;;;13.92;47.65;94922.06;5067880;28;20090;-47
2024/04/05 04:54:51;;;;;;;1.27;0.85;;;;;;;14.03;47.69;94913.56;5072076;28;20033;-50
2024/04/05 04:57:16;;;;;;;1.77;0.90;;;;;;;14.13;47.44;94914.97;5058670;28;20052;-47
2024/04/05 04:59:42;;;;;;;2.17;0.95;;;;;;;13.94;47.75;94916.63;5071649;28;20063;-48
2024/04/05 05:02:08;;;;;;;1.40;0.93;;;;;;;13.87;47.80;94924.47;5055110;28;20036;-46
2024/04/05 05:04:34;;;;;;;1.77;0.65;;;;;;;13.69;48.63;94931.16;5046658;28;20056;-51
2024/04/05 05:07:00;;;;;;;1.42;0.60;;;;;;;13.76;48.12;94938.97;5071165;28;20091;-51
2024/04/05 05:09:25;;;;;;;1.73;0.65;;;;;;;13.67;48.13;94929.75;5069160;28;20028;-47
2024/04/05 05:11:50;;;;;;;1.65;0.60;;;;;;;14.10;46.75;94931.03;5071676;28;20049;-49
2024/04/05 05:14:16;;;;;;;1.48;0.70;;;;;;;14.06;46.28;94926.22;5068277;28;20497;-47
2024/04/05 05:16:41;;;;;;;1.98;0.63;;;;;;;14.06;46.49;94921.00;5054853;28;20037;-49
2024/04/05 05:19:07;;;;;;;2.60;0.60;;;;;;;13.85;47.64;94932.50;5085256;28;20109;-46
2024/04/05 05:21:34;;;;;;;2.40;0.63;;;;;;;14.01;47.29;94930.47;5056552;28;20040;-46
2024/04/05 05:24:00;;;;;;;1.50;0.88;;;;;;;13.81;47.98;94938.38;5067792;28;20032;-47
2024/04/05 05:26:25;;;;;;;0.60;0.55;;;;;;;14.18;46.98;94938.66;5065712;28;20075;-47
2024/04/05 05:28:50;;;;;;;1.27;0.60;;;;;;;14.36;46.64;94938.00;5064250;28;20024;-47
2024/04/05 05:31:16;;;;;;;1.58;0.60;;;;;;;14.52;46.00;94944.56;5071229;28;20393;-46
2024/04/05 05:33:41;;;;;;;4.40;0.70;;;;;;;14.75;45.26;94933.59;5067782;28;20103;-48
2024/04/05 05:36:07;;;;;;;2.20;0.50;;;;;;;14.80;45.19;94939.03;5070341;28;20062;-49
2024/04/05 05:38:32;;;;;;;0.65;0.50;;;;;;;14.72;44.84;94940.06;5072221;28;20055;-47
2024/04/05 05:40:57;;;;;;;1.27;0.77;;;;;;;15.11;44.04;94943.44;5072043;28;20028;-47
2024/04/05 05:43:23;;;;;;;0.93;0.50;;;;;;;15.20;44.33;94942.16;5068686;28;20046;-47
2024/04/05 05:45:48;;;;;;;0.95;0.50;;;;;;;15.31;44.13;94935.44;5069730;28;20102;-52
2024/04/05 05:48:14;;;;;;;3.00;0.60;;;;;;;15.56;43.83;94932.03;5045168;28;20045;-48
2024/04/05 05:50:40;;;;;;;1.08;0.60;;;;;;;15.70;43.21;94933.47;5055642;28;20545;-47
2024/04/05 05:53:06;;;;;;;2.40;0.80;;;;;;;15.81;42.92;94932.00;5053825;28;20020;-50
2024/04/05 05:55:32;;;;;;;1.00;0.60;;;;;;;16.19;42.90;94929.19;5068320;28;20024;-50
2024/04/05 05:57:57;;;;;;;1.17;0.70;;;;;;;17.29;39.81;94926.53;5069803;28;20028;-50
2024/04/05 06:00:23;;;;;;;2.55;0.68;;;;;;;18.48;37.79;94925.44;5060667;28;20055;-50
2024/04/05 06:02:48;;;;;;;1.40;0.60;;;;;;;18.54;37.11;94929.75;5062086;28;20033;-48
2024/04/05 06:05:15;;;;;;;1.27;0.70;;;;;;;18.30;37.83;94929.84;5057594;28;20033;-48
2024/04/05 06:07:41;;;;;;;1.58;0.60;;;;;;;18.33;38.50;94931.19;5066113;28;20074;-49
2024/04/05 06:10:07;;;;;;;0.70;0.52;;;;;;;19.09;37.35;94931.84;5067497;28;20029;-46
2024/04/05 06:12:36;;;;;;;1.55;0.70;;;;;;;20.09;34.27;94934.72;5061990;28;20058;-47
2024/04/05 06:15:04;;;;;;;0.88;0.55;;;;;;;20.19;34.24;94934.03;5052446;28;20131;-49
2024/04/05 06:17:34;;;;;;;1.63;0.60;;;;;;;20.14;34.40;94944.53;5065402;28;20033;-47
2024/04/05 06:20:00;;;;;;;1.88;0.50;;;;;;;20.38;34.31;94952.22;5060970;28;20117;-45
2024/04/05 06:22:30;;;;;;;0.65;0.52;;;;;;;20.72;34.06;94957.41;5069814;28;20078;-45
2024/04/05 06:24:55;;;;;;;2.08;0.60;;;;;;;21.52;32.99;94952.41;5067679;28;20403;-46
2024/04/05 06:27:21;;;;;;;0.88;0.50;;;;;;;23.49;29.38;94956.44;5066355;28;20039;-48
2024/04/05 06:29:50;;;;;;;1.63;0.60;;;;;;;23.78;28.31;94949.56;5066105;28;20041;-46
2024/04/05 06:32:17;;;;;;;1.83;0.63;;;;;;;24.42;28.83;94965.09;5066374;28;20111;-46
2024/04/05 06:34:43;;;;;;;2.47;0.90;;;;;;;24.37;30.54;94966.72;5068393;28;20037;-47
2024/04/05 06:37:08;;;;;;;1.67;0.70;;;;;;;25.38;29.16;94954.28;5061824;28;20068;-46
2024/04/05 06:39:34;;;;;;;1.38;0.63;;;;;;;25.83;28.41;94952.31;5048714;28;20079;-46
2024/04/05 06:41:59;;;;;;;6.55;0.90;;;;;;;25.63;27.08;94943.44;5052754;28;20040;-49
2024/04/05 06:44:26;;;;;;;2.75;0.70;;;;;;;25.88;27.37;94946.94;5083647;28;20025;-46
2024/04/05 06:46:52;;;;;;;1.42;0.60;;;;;;;26.43;26.37;94936.81;5067678;28;20048;-46
2024/04/05 06:49:17;;;;;;;0.75;0.70;;;;;;;26.85;27.20;94929.13;5070226;28;20025;-46
2024/04/05 06:51:43;;;;;;;1.70;0.57;;;;;;;27.05;26.18;94922.69;5065481;28;20028;-46
2024/04/05 06:54:08;;;;;;;2.38;0.50;;;;;;;27.34;25.62;94905.75;5048955;28;20032;-48
2024/04/05 06:56:34;;;;;;;1.77;0.50;;;;;;;27.88;25.02;94909.66;5065361;28;20362;-47
2024/04/05 06:58:59;;;;;;;2.58;0.40;;;;;;;28.46;24.28;94906.44;5069737;28;20111;-51
2024/04/05 07:01:25;;;;;;;1.15;0.40;;;;;;;27.75;25.26;94910.41;5079910;28;20028;-47
2024/04/05 07:03:50;;;;;;;0.77;0.40;;;;;;;27.86;23.82;94898.47;5060481;28;20048;-47
2024/04/05 07:06:16;;;;;;;0.93;0.40;;;;;;;28.04;25.02;94902.16;5066768;28;20107;-46
2024/04/05 07:08:41;;;;;;;0.90;0.40;;;;;;;28.02;27.10;94905.13;5069378;28;20044;-46
2024/04/05 07:11:09;;;;;;;1.25;0.60;;;;;;;29.20;24.86;94910.00;5069233;28;20044;-48
2024/04/05 07:13:35;;;;;;;8.63;1.02;;;;;;;28.39;25.06;94907.94;5069326;28;20124;-49
2024/04/05 07:16:01;;;;;;;1.20;0.80;;;;;;;27.91;25.45;94906.41;5064652;28;20070;-46
2024/04/05 07:18:27;;;;;;;2.10;0.80;;;;;;;26.55;27.35;94912.38;5067977;28;20029;-46
2024/04/05 07:20:54;;;;;;;1.35;0.80;;;;;;;26.17;27.50;94916.84;5069030;28;20036;-48
2024/04/05 07:23:20;;;;;;;1.77;0.93;;;;;;;25.54;29.43;94911.28;5066158;28;20056;-49
2024/04/05 07:25:45;;;;;;;3.05;1.00;;;;;;;25.00;28.94;94922.84;5061700;28;20040;-48
2024/04/05 07:28:11;;;;;;;4.75;1.00;;;;;;;24.28;30.32;94923.16;5066156;28;20024;-46
2024/04/05 07:30:37;;;;;;;4.30;0.70;;;;;;;23.91;30.76;94912.88;5067174;28;20473;-46
2024/04/05 07:33:03;;;;;;;1.55;1.00;;;;;;;24.01;30.15;94910.22;5065727;28;20041;-46
2024/04/05 07:35:32;;;;;;;3.75;1.05;;;;;;;24.82;30.55;94916.28;5064369;28;20346;-46
2024/04/05 07:37:58;;;;;;;3.83;0.90;;;;;;;25.21;29.70;94912.03;5051419;28;20042;-48
2024/04/05 07:40:26;;;;;;;2.55;0.70;;;;;;;25.26;29.89;94909.38;5067609;28;20044;-45
2024/04/05 07:42:53;;;;;;;2.42;1.10;;;;;;;25.58;30.06;94900.84;5062553;28;20033;-46
2024/04/05 07:45:20;;;;;;;5.10;0.65;;;;;;;26.92;27.64;94917.00;5068576;28;20028;-46
2024/04/05 07:47:48;;;;;;;0.93;0.68;;;;;;;27.63;27.26;94922.38;5067867;28;20036;-46
2024/04/05 07:50:15;;;;;;;3.03;0.90;;;;;;;28.89;26.67;94920.59;5065117;28;20071;-46
2024/04/05 07:52:41;;;;;;;4.43;0.90;;;;;;;29.35;26.43;94911.53;5063387;28;20131;-46
2024/04/05 07:55:08;;;;;;;2.28;0.80;;;;;;;30.49;24.39;94905.69;5067608;28;20503;-48
2024/04/05 07:57:33;;;;;;;3.08;0.60;;;;;;;30.61;24.36;94918.50;5048451;28;20036;-50
2024/04/05 07:59:59;;;;;;;0.85;0.60;;;;;;;30.21;25.63;94923.88;5051003;28;20039;-47
2024/04/05 08:02:29;;;;;;;3.20;0.77;;;;;;;31.06;23.42;94931.72;5067943;28;20055;-49
2024/04/05 08:04:58;;;;;;;1.15;0.55;;;;;;;31.74;22.16;94933.94;5064337;28;20033;-50
2024/04/05 08:07:28;;;;;;;1.10;0.57;;;;;;;33.20;20.33;94929.34;5065223;28;20048;-47
2024/04/05 08:09:54;;;;;;;0.95;0.43;;;;;;;32.62;20.80;94934.47;5067948;28;20083;-49
2024/04/05 08:12:19;;;;;;;0.57;0.57;;;;;;;33.10;19.84;94942.09;5067232;28;20048;-51
2024/04/05 08:14:45;;;;;;;2.50;0.60;;;;;;;33.07;18.64;94937.34;5066479;28;20044;-48
2024/04/05 08:17:14;;;;;;;1.85;0.60;;;;;;;31.84;19.16;94933.56;5067971;28;20122;-47
2024/04/05 08:19:40;;;;;;;0.87;0.50;;;;;;;30.42;22.29;94936.75;5060179;28;20038;-50
2024/04/05 08:22:06;;;;;;;1.38;0.70;;;;;;;30.90;21.07;94933.25;5063557;28;20112;-46
2024/04/05 08:24:33;;;;;;;3.40;0.57;;;;;;;30.11;21.82;94930.28;5060853;28;20040;-46
2024/04/05 08:26:59;;;;;;;0.93;0.50;;;;;;;29.28;22.86;94932.59;5062629;28;20051;-49
2024/04/05 08:29:25;;;;;;;0.85;0.50;;;;;;;29.39;23.54;94937.41;5070339;28;20082;-48
2024/04/05 08:31:52;;;;;;;1.27;0.57;;;;;;;29.05;23.78;94927.97;5068140;28;20024;-50
2024/04/05 08:34:18;;;;;;;1.10;0.60;;;;;;;28.41;24.16;94917.25;5061112;28;20029;-49
2024/04/05 08:36:48;;;;;;;1.10;0.50;;;;;;;28.15;25.21;94926.84;5070374;28;20056;-47
2024/04/05 08:39:18;;;;;;;1.75;0.73;;;;;;;28.00;25.58;94931.38;5071196;28;20047;-51
2024/04/05 08:41:45;;;;;;;3.05;0.60;;;;;;;27.63;25.94;94930.38;5071361;28;20066;-47
2024/04/05 08:44:12;;;;;;;1.15;0.60;;;;;;;27.71;26.22;94925.47;5071071;28;20046;-49
2024/04/05 08:46:42;;;;;;;0.93;0.50;;;;;;;27.26;27.24;94923.22;5069800;28;20128;-48
2024/04/05 08:49:08;;;;;;;2.35;0.60;;;;;;;27.01;26.79;94929.69;5066004;28;20032;-49
2024/04/05 08:51:34;;;;;;;3.15;0.60;;;;;;;27.24;26.90;94926.13;5071889;28;20152;-47
2024/04/05 08:54:00;;;;;;;0.68;0.50;;;;;;;27.05;26.42;94926.16;5075022;28;20119;-47
2024/04/05 08:56:28;;;;;;;2.72;0.50;;;;;;;26.92;27.10;94926.88;5067813;28;20035;-52
2024/04/05 08:58:54;;;;;;;1.90;0.70;;;;;;;27.06;27.13;94924.28;5064740;28;20032;-50
2024/04/05 09:01:20;;;;;;;2.58;0.60;;;;;;;27.22;28.03;94924.84;5066718;28;20514;-48
2024/04/05 09:03:49;;;;;;;1.85;0.60;;;;;;;26.85;27.48;94929.91;5071958;28;20039;-47
2024/04/05 09:06:15;;;;;;;1.40;0.50;;;;;;;26.81;28.55;94928.91;5070084;28;20033;-52
2024/04/05 09:08:49;;;;;;;3.13;0.60;;;;;;;27.19;28.88;94926.25;5069329;28;20078;-46
2024/04/05 09:11:22;;;;;;;2.10;0.52;;;;;;;26.84;27.18;94930.97;5064962;28;20067;-49
2024/04/05 09:13:55;;;;;;;2.40;0.70;;;;;;;27.25;26.66;94919.75;5069256;28;20090;-47
2024/04/05 09:16:22;;;;;;;3.63;1.33;;;;;;;27.29;28.34;94927.97;5069310;28;20116;-47
2024/04/05 09:18:47;;;;;;;4.32;0.75;;;;;;;27.38;28.58;94936.94;5070373;28;20093;-46
2024/04/05 09:21:13;;;;;;;1.45;0.60;;;;;;;27.44;28.14;94933.09;5069453;28;20032;-46
2024/04/05 09:23:49;;;;;;;0.60;0.50;;;;;;;26.88;29.77;94931.19;5069680;28;20025;-51
2024/04/05 09:26:19;;;;;;;1.65;0.50;;;;;;;27.11;28.51;94927.69;5070547;28;20031;-50
2024/04/05 09:29:07;;;;;;;1.88;0.63;;;;;;;26.80;28.94;94934.50;5071063;28;20040;-48
2024/04/05 09:31:35;;;;;;;2.33;0.70;;;;;;;26.74;28.48;94928.44;5070704;28;20037;-47
2024/04/05 09:34:14;;;;;;;0.52;0.50;;;;;;;26.56;28.08;94932.66;5070729;28;20086;-50
2024/04/05 09:36:40;;;;;;;2.33;0.50;;;;;;;26.45;28.44;94925.88;5071019;28;20028;-48
2024/04/05 09:39:06;;;;;;;2.15;0.65;;;;;;;26.65;30.30;94936.28;5070866;28;20031;-48
2024/04/05 09:41:33;;;;;;;0.95;0.63;;;;;;;26.51;31.40;94938.84;5053869;28;20032;-47
2024/04/05 09:44:02;;;;;;;1.85;0.50;;;;;;;26.55;31.64;94940.94;5071187;28;20115;-47
2024/04/05 09:46:28;;;;;;;2.25;0.60;;;;;;;26.91;29.58;94939.44;5070776;28;20032;-52
2024/04/05 09:48:58;;;;;;;1.50;0.40;;;;;;;26.94;27.54;94934.59;5067935;28;20039;-45
2024/04/05 09:51:42;;;;;;;0.60;0.40;;;;;;;26.79;26.49;94936.41;5066867;28;20170;-47
2024/04/05 09:54:12;;;;;;;1.77;0.60;;;;;;;27.08;26.43;94930.13;5073843;28;20031;-45
2024/04/05 09:56:39;;;;;;;1.42;0.63;;;;;;;27.20;28.28;94930.47;5069099;28;20107;-49
2024/04/05 09:59:09;;;;;;;1.40;0.50;;;;;;;26.73;26.51;94932.19;5090710;28;20060;-48
2024/04/05 10:01:35;;;;;;;1.77;0.60;;;;;;;27.10;28.35;94922.63;5075502;28;20033;-50
2024/04/05 10:04:03;;;;;;;1.42;0.50;;;;;;;27.02;28.66;94920.63;5064479;28;20037;-49
2024/04/05 10:06:38;;;;;;;1.73;0.50;;;;;;;26.76;30.65;94926.28;5062466;28;20040;-46
2024/04/05 10:09:16;;;;;;;2.08;0.52;;;;;;;27.04;28.75;94924.56;5066327;28;20051;-46
2024/04/05 10:11:43;;;;;;;2.63;0.60;;;;;;;27.25;27.66;94925.09;5071552;28;20094;-50
2024/04/05 10:14:08;;;;;;;1.67;0.50;;;;;;;27.23;28.53;94927.22;5070388;28;20060;-47
2024/04/05 10:16:34;;;;;;;0.52;0.50;;;;;;;27.00;31.25;94922.78;5072479;28;20078;-46
2024/04/05 10:19:09;;;;;;;1.27;0.63;;;;;;;27.39;28.00;94927.03;5062190;28;20045;-50
2024/04/05 10:21:34;;;;;;;0.98;0.52;;;;;;;27.17;29.06;94923.06;5069105;28;20043;-48
2024/04/05 10:24:00;;;;;;;2.22;0.50;;;;;;;27.40;28.65;94920.63;5053036;28;20044;-48
2024/04/05 10:26:25;;;;;;;1.67;0.70;;;;;;;27.30;28.66;94927.69;5070080;28;20032;-46
2024/04/05 10:29:05;;;;;;;0.75;0.50;;;;;;;27.36;26.55;94933.75;5077405;28;20025;-48
2024/04/05 10:31:36;;;;;;;1.27;0.55;;;;;;;26.88;28.10;94939.19;5080521;28;20124;-45
2024/04/05 10:34:03;;;;;;;1.38;0.40;;;;;;;27.24;25.72;94928.81;5065002;28;20044;-51
2024/04/05 10:36:30;;;;;;;0.65;0.40;;;;;;;27.04;28.07;94924.56;5073300;28;20028;-46
2024/04/05 10:38:56;;;;;;;1.00;0.50;;;;;;;27.11;26.61;94925.00;5067241;28;20052;-46
2024/04/05 10:41:21;;;;;;;0.65;0.45;;;;;;;26.91;25.09;94923.41;5069631;28;20024;-46
2024/04/05 10:43:47;;;;;;;1.45;0.50;;;;;;;26.79;29.86;94924.91;5049756;28;20488;-48
2024/04/05 10:46:15;;;;;;;0.85;0.45;;;;;;;26.79;28.79;94925.72;5062783;28;20036;-46
2024/04/05 10:48:41;;;;;;;1.90;0.60;;;;;;;27.06;27.27;94932.31;5070647;28;20025;-47
2024/04/05 10:51:06;;;;;;;3.17;0.50;;;;;;;27.09;27.75;94929.84;5052762;28;20029;-46
2024/04/05 10:53:31;;;;;;;1.52;0.50;;;;;;;27.10;27.18;94920.75;5065854;28;20059;-46
2024/04/05 10:55:57;;;;;;;0.88;0.38;;;;;;;27.21;24.70;94917.94;5067638;28;20028;-49
2024/04/05 10:58:22;;;;;;;0.60;0.50;;;;;;;26.76;25.99;94920.94;5060493;28;20033;-50
2024/04/05 11:00:48;;;;;;;0.70;0.40;;;;;;;26.83;25.38;94928.63;5068862;28;20032;-48
2024/04/05 11:03:14;;;;;;;0.90;0.50;;;;;;;26.99;26.89;94910.50;5065857;28;20041;-47
2024/04/05 11:05:40;;;;;;;0.77;0.50;;;;;;;27.21;27.20;94917.94;5065889;28;20029;-48
2024/04/05 11:08:08;;;;;;;1.77;0.50;;;;;;;27.14;25.30;94907.63;5065060;28;20043;-46
2024/04/05 11:10:34;;;;;;;1.92;0.50;;;;;;;26.99;25.60;94908.63;5063180;28;20047;-47
2024/04/05 11:13:11;;;;;;;1.15;0.47;;;;;;;27.13;26.45;94905.22;5066621;28;20033;-46
2024/04/05 11:15:37;;;;;;;1.67;0.55;;;;;;;27.27;26.10;94912.25;5082406;28;20051;-47
2024/04/05 11:18:07;;;;;;;1.33;0.45;;;;;;;27.31;25.82;94912.47;5068769;28;20488;-45
2024/04/05 11:20:35;;;;;;;1.15;0.50;;;;;;;27.52;27.37;94912.94;5070003;28;20048;-47
2024/04/05 11:23:02;;;;;;;2.05;0.50;;;;;;;27.01;26.14;94913.69;5069165;28;20028;-48
2024/04/05 11:25:28;;;;;;;1.50;0.50;;;;;;;27.24;28.03;94915.47;5070455;28;20484;-51
2024/04/05 11:27:54;;;;;;;0.50;0.35;;;;;;;27.17;27.67;94912.38;5070348;28;20040;-45
2024/04/05 11:30:19;;;;;;;1.60;0.40;;;;;;;26.99;27.70;94918.50;5070276;28;20025;-48